Time;durP1;ratioP1;P1;durP2;ratioP2;P2;SDS_P1;SDS_P2;PMS_P1;PMS_P2;Temp;Humidity;BMP_temperature;BMP_pressure;BME280_temperature;BME280_humidity;BME280_pressure;Samples;Min_cycle;Max_cycle;Signal;HPM_P1;HPM_P2
2023/07/13 00:00:30;;;;;;;3.75;1.90;;;15.60;99.90;;;;;;5080706;27;20030;-84
2023/07/13 00:02:56;;;;;;;3.63;2.05;;;15.60;99.90;;;;;;5112185;27;20043;-83
2023/07/13 00:05:23;;;;;;;5.25;2.65;;;15.60;99.90;;;;;;5093219;27;20067;-83
2023/07/13 00:07:50;;;;;;;5.38;2.53;;;15.60;99.90;;;;;;5091332;27;20506;-84
2023/07/13 00:10:17;;;;;;;5.28;2.35;;;15.70;99.90;;;;;;5094905;27;20490;-83
2023/07/13 00:12:43;;;;;;;6.47;2.50;;;15.70;99.90;;;;;;5093004;27;20131;-83
2023/07/13 00:15:23;;;;;;;8.77;3.67;;;15.70;99.90;;;;;;5085591;27;20103;-84
2023/07/13 00:17:50;;;;;;;12.85;2.80;;;15.70;99.90;;;;;;5083411;27;20066;-83
2023/07/13 00:20:16;;;;;;;7.90;2.45;;;15.80;99.90;;;;;;5093591;27;20033;-83
2023/07/13 00:22:43;;;;;;;8.35;2.70;;;15.80;99.90;;;;;;5115660;27;20039;-84
2023/07/13 00:25:12;;;;;;;7.35;2.60;;;15.80;99.90;;;;;;5093117;27;20217;-83
2023/07/13 00:27:38;;;;;;;6.63;2.67;;;15.80;99.90;;;;;;5081333;27;20040;-83
2023/07/13 00:30:05;;;;;;;8.05;2.42;;;15.80;99.90;;;;;;5101168;27;20385;-84
2023/07/13 00:32:31;;;;;;;7.82;2.83;;;15.90;99.90;;;;;;5087675;27;20799;-84
2023/07/13 00:35:00;;;;;;;7.88;2.58;;;15.90;99.90;;;;;;5082490;27;20031;-83
2023/07/13 00:37:29;;;;;;;9.13;2.58;;;15.90;99.90;;;;;;5074248;27;20424;-84
2023/07/13 00:39:54;;;;;;;10.00;2.67;;;15.90;99.90;;;;;;5086129;27;20081;-84
2023/07/13 00:42:20;;;;;;;6.72;2.67;;;15.90;99.90;;;;;;5094323;27;20133;-84
2023/07/13 00:45:11;;;;;;;10.88;2.97;;;16.00;99.90;;;;;;5076947;27;20525;-84
2023/07/13 00:47:40;;;;;;;8.38;2.67;;;15.90;99.90;;;;;;5110303;27;20043;-83
2023/07/13 00:50:10;;;;;;;10.38;2.58;;;16.00;99.90;;;;;;5088016;27;20149;-84
2023/07/13 00:52:40;;;;;;;8.95;2.80;;;16.00;99.90;;;;;;5086300;27;20122;-83
2023/07/13 00:55:06;;;;;;;10.25;2.95;;;16.00;99.90;;;;;;5117252;27;20149;-84
2023/07/13 00:57:32;;;;;;;7.60;2.88;;;16.00;99.90;;;;;;5079638;27;20032;-83
2023/07/13 01:00:06;;;;;;;7.43;3.03;;;16.00;99.90;;;;;;5090901;27;20038;-84
2023/07/13 01:02:33;;;;;;;11.75;2.55;;;16.00;99.90;;;;;;5092044;27;20149;-83
2023/07/13 01:04:58;;;;;;;7.10;2.85;;;15.90;99.90;;;;;;5104437;27;20452;-84
2023/07/13 01:07:25;;;;;;;9.52;3.08;;;15.90;99.90;;;;;;5090315;27;20099;-84
2023/07/13 01:09:51;;;;;;;8.25;3.00;;;15.90;99.90;;;;;;5115457;27;20102;-84
2023/07/13 01:12:17;;;;;;;7.47;2.70;;;15.90;99.90;;;;;;5085753;27;20056;-83
2023/07/13 01:14:42;;;;;;;8.60;2.92;;;15.90;99.90;;;;;;5094337;27;20047;-83
2023/07/13 01:17:11;;;;;;;8.90;2.67;;;15.90;99.90;;;;;;5092961;27;20214;-84
2023/07/13 01:19:41;;;;;;;10.98;2.80;;;15.90;99.90;;;;;;5090329;27;20148;-83
2023/07/13 01:22:11;;;;;;;6.55;3.20;;;15.90;99.90;;;;;;5097068;27;20046;-83
2023/07/13 01:24:42;;;;;;;8.60;3.28;;;15.90;99.90;;;;;;5101274;27;20266;-84
2023/07/13 01:27:09;;;;;;;8.85;2.92;;;16.00;99.90;;;;;;5096273;27;20031;-84
2023/07/13 01:29:41;;;;;;;11.90;3.00;;;16.00;99.90;;;;;;5094461;27;20035;-84
2023/07/13 01:32:17;;;;;;;12.45;3.10;;;16.00;99.90;;;;;;5083679;27;20039;-83
2023/07/13 01:34:43;;;;;;;10.02;3.03;;;16.00;99.90;;;;;;5094917;27;20118;-83
2023/07/13 01:37:11;;;;;;;10.48;3.13;;;16.00;99.90;;;;;;5129334;27;20518;-83
2023/07/13 01:39:37;;;;;;;13.88;3.67;;;16.10;99.90;;;;;;5083302;27;20038;-83
2023/07/13 01:42:03;;;;;;;9.63;3.22;;;16.10;99.90;;;;;;5101614;27;20079;-83
2023/07/13 01:44:29;;;;;;;13.75;3.25;;;16.10;99.90;;;;;;5114051;27;20038;-83
2023/07/13 01:46:55;;;;;;;14.32;3.70;;;16.10;99.90;;;;;;5084641;27;20500;-84
2023/07/13 01:49:20;;;;;;;10.05;3.65;;;16.10;99.90;;;;;;5090764;27;20035;-83
2023/07/13 01:51:46;;;;;;;13.73;3.22;;;16.10;99.90;;;;;;5096652;27;20065;-83
2023/07/13 01:54:12;;;;;;;12.43;3.25;;;16.10;99.90;;;;;;5082766;27;20741;-84
2023/07/13 01:56:37;;;;;;;12.82;3.50;;;16.10;99.90;;;;;;5091939;27;20421;-83
2023/07/13 01:59:03;;;;;;;16.25;3.47;;;16.10;99.90;;;;;;5086504;27;20697;-83
2023/07/13 02:01:29;;;;;;;11.55;3.60;;;16.10;99.90;;;;;;5088514;27;20141;-84
2023/07/13 02:03:54;;;;;;;14.60;3.90;;;16.10;99.90;;;;;;5088282;27;20038;-84
2023/07/13 02:06:20;;;;;;;10.82;3.38;;;16.10;99.90;;;;;;5092004;27;20061;-84
2023/07/13 02:08:46;;;;;;;12.80;3.08;;;16.10;99.90;;;;;;5105510;27;20042;-84
2023/07/13 02:11:12;;;;;;;9.07;2.90;;;16.10;99.90;;;;;;5105091;27;20074;-84
2023/07/13 02:13:37;;;;;;;11.50;3.20;;;16.10;99.90;;;;;;5100639;27;20123;-83
2023/07/13 02:16:03;;;;;;;13.88;3.08;;;16.10;99.90;;;;;;5101870;27;20035;-84
2023/07/13 02:18:29;;;;;;;12.05;3.50;;;16.10;99.90;;;;;;5088774;27;20486;-84
2023/07/13 02:20:55;;;;;;;10.45;3.10;;;16.10;99.90;;;;;;5096368;27;20141;-84
2023/07/13 02:23:21;;;;;;;11.00;2.70;;;16.10;99.90;;;;;;5106918;27;20035;-83
2023/07/13 02:25:47;;;;;;;12.15;3.28;;;16.00;99.90;;;;;;5105127;27;20049;-84
2023/07/13 02:28:12;;;;;;;15.05;3.17;;;16.00;99.90;;;;;;5091294;27;20034;-84
2023/07/13 02:30:38;;;;;;;8.70;3.15;;;15.90;99.90;;;;;;5084933;27;20149;-84
2023/07/13 02:33:05;;;;;;;12.30;3.85;;;15.90;99.90;;;;;;5116515;27;20534;-84
2023/07/13 02:35:31;;;;;;;9.68;3.22;;;15.90;99.90;;;;;;5083432;27;20034;-83
2023/07/13 02:37:56;;;;;;;7.43;2.80;;;15.90;99.90;;;;;;5084118;27;20394;-84
2023/07/13 02:40:23;;;;;;;11.00;3.10;;;15.90;99.90;;;;;;5097361;27;20109;-83
2023/07/13 02:42:49;;;;;;;8.60;3.22;;;15.80;99.90;;;;;;5080661;27;20047;-83
2023/07/13 02:45:14;;;;;;;13.50;3.15;;;15.80;99.90;;;;;;5092429;27;20041;-83
2023/07/13 02:47:41;;;;;;;14.75;3.33;;;15.80;99.90;;;;;;5111934;27;20455;-83
2023/07/13 02:50:08;;;;;;;10.30;3.88;;;15.70;99.90;;;;;;5107856;27;20500;-84
2023/07/13 02:52:33;;;;;;;8.70;3.00;;;15.60;99.90;;;;;;5099721;27;20266;-84
2023/07/13 02:55:00;;;;;;;11.07;3.03;;;15.50;99.90;;;;;;5118286;27;20261;-84
2023/07/13 02:57:28;;;;;;;7.50;3.20;;;15.50;99.90;;;;;;5114093;27;20046;-83
2023/07/13 02:59:56;;;;;;;10.25;3.53;;;15.50;99.90;;;;;;5097245;27;20509;-84
2023/07/13 03:02:22;;;;;;;10.07;3.13;;;15.50;99.90;;;;;;5110659;27;20070;-84
2023/07/13 03:04:51;;;;;;;9.80;3.00;;;15.40;99.90;;;;;;5092458;27;20471;-84
2023/07/13 03:07:16;;;;;;;11.00;2.85;;;15.30;99.90;;;;;;5103584;27;20042;-84
2023/07/13 03:09:42;;;;;;;7.60;2.80;;;15.40;99.90;;;;;;5085219;27;20031;-84
2023/07/13 03:12:08;;;;;;;8.15;2.67;;;15.30;99.90;;;;;;5077920;27;20080;-84
2023/07/13 03:14:34;;;;;;;12.85;3.67;;;15.30;99.90;;;;;;5100247;27;20070;-84
2023/07/13 03:16:59;;;;;;;8.88;2.67;;;15.30;99.90;;;;;;5101618;27;20078;-84
2023/07/13 03:19:25;;;;;;;7.97;3.33;;;15.20;99.90;;;;;;5125491;27;20111;-84
2023/07/13 03:21:51;;;;;;;11.80;2.63;;;15.20;99.90;;;;;;5105698;27;20096;-83
2023/07/13 03:24:17;;;;;;;11.65;3.30;;;15.10;99.90;;;;;;5119421;27;20022;-84
2023/07/13 03:26:42;;;;;;;6.43;2.85;;;15.20;99.90;;;;;;5087660;28;20452;-83
2023/07/13 03:29:08;;;;;;;6.88;3.13;;;15.20;99.90;;;;;;5085146;27;20883;-84
2023/07/13 03:31:36;;;;;;;35.85;4.18;;;15.20;99.90;;;;;;5097504;27;20032;-84
2023/07/13 03:34:02;;;;;;;11.25;3.75;;;15.30;99.90;;;;;;5098802;27;20046;-84
2023/07/13 03:36:29;;;;;;;11.93;3.53;;;15.20;99.90;;;;;;5089272;27;20035;-83
2023/07/13 03:38:59;;;;;;;8.98;3.10;;;15.40;99.90;;;;;;5093323;27;20035;-83
2023/07/13 03:41:26;;;;;;;10.00;3.47;;;15.40;99.90;;;;;;5099025;27;20365;-84
2023/07/13 03:43:52;;;;;;;12.35;3.50;;;15.50;99.90;;;;;;5092085;27;20059;-82
2023/07/13 03:46:18;;;;;;;13.15;3.70;;;15.50;99.90;;;;;;5084235;27;20051;-83
2023/07/13 03:48:46;;;;;;;14.95;4.00;;;15.50;99.90;;;;;;5101296;27;20047;-84
2023/07/13 03:51:14;;;;;;;10.05;3.85;;;15.50;99.90;;;;;;5098831;27;20512;-84
2023/07/13 03:53:42;;;;;;;12.15;4.03;;;15.60;99.90;;;;;;5085272;27;20479;-84
2023/07/13 03:56:08;;;;;;;11.27;3.88;;;15.70;99.90;;;;;;5103133;27;20567;-83
2023/07/13 03:58:37;;;;;;;11.93;3.20;;;15.60;99.90;;;;;;5076830;28;20707;-83
2023/07/13 04:01:05;;;;;;;11.20;3.30;;;15.60;99.90;;;;;;5092901;27;20437;-84
2023/07/13 04:03:32;;;;;;;12.82;3.60;;;15.60;99.90;;;;;;5085287;27;20405;-84
2023/07/13 04:06:00;;;;;;;10.95;3.25;;;15.60;99.90;;;;;;5098817;27;20040;-83
2023/07/13 04:08:30;;;;;;;11.15;3.53;;;15.60;99.90;;;;;;5088685;27;20043;-84
2023/07/13 04:10:56;;;;;;;12.27;3.92;;;15.60;99.90;;;;;;5098077;27;20450;-84
2023/07/13 04:13:23;;;;;;;13.73;4.30;;;15.60;99.90;;;;;;5090636;27;20461;-83
2023/07/13 04:15:49;;;;;;;13.43;3.78;;;15.60;99.90;;;;;;5094603;27;20109;-83
2023/07/13 04:18:16;;;;;;;7.18;3.00;;;15.60;99.90;;;;;;5084811;28;20039;-83
2023/07/13 04:20:42;;;;;;;9.65;3.45;;;15.70;99.90;;;;;;5078113;27;20036;-83
2023/07/13 04:23:08;;;;;;;11.25;3.58;;;15.80;99.90;;;;;;5088279;27;20043;-83
2023/07/13 04:25:33;;;;;;;10.98;4.00;;;15.80;99.90;;;;;;5095491;27;20360;-84
2023/07/13 04:27:59;;;;;;;11.77;3.65;;;15.90;99.90;;;;;;5105726;27;20036;-83
2023/07/13 04:30:26;;;;;;;10.95;3.17;;;15.90;99.90;;;;;;5100482;27;20049;-84
2023/07/13 04:32:52;;;;;;;9.77;3.25;;;15.90;99.90;;;;;;5101468;27;20130;-84
2023/07/13 04:35:21;;;;;;;9.07;3.25;;;15.90;99.90;;;;;;5089347;27;20036;-84
2023/07/13 04:37:49;;;;;;;10.48;3.47;;;16.00;99.90;;;;;;5086114;28;20522;-84
2023/07/13 04:40:19;;;;;;;8.70;3.20;;;16.20;99.90;;;;;;5097857;28;20074;-83
2023/07/13 04:42:47;;;;;;;8.95;3.15;;;16.30;99.90;;;;;;5094406;28;20130;-83
2023/07/13 04:45:15;;;;;;;10.98;3.33;;;16.40;99.90;;;;;;5088031;28;20465;-84
2023/07/13 04:47:41;;;;;;;10.07;3.85;;;16.40;99.90;;;;;;5085619;28;20059;-84
2023/07/13 04:50:08;;;;;;;13.85;4.13;;;16.40;99.90;;;;;;5089678;28;20487;-84
2023/07/13 04:52:34;;;;;;;11.07;3.20;;;16.30;99.90;;;;;;5100458;27;20104;-83
2023/07/13 04:55:00;;;;;;;9.45;3.45;;;16.40;99.90;;;;;;5083902;28;20046;-84
2023/07/13 04:57:27;;;;;;;13.00;3.65;;;16.50;99.90;;;;;;5096407;28;20375;-84
2023/07/13 04:59:53;;;;;;;9.70;3.38;;;16.60;99.90;;;;;;5079016;28;20028;-83
2023/07/13 05:02:21;;;;;;;11.57;3.78;;;16.60;99.90;;;;;;5090050;27;20478;-83
2023/07/13 05:04:48;;;;;;;14.93;3.50;;;16.60;99.90;;;;;;5088853;28;20042;-83
2023/07/13 05:07:13;;;;;;;10.43;3.10;;;16.60;99.90;;;;;;5075996;28;20351;-84
2023/07/13 05:09:40;;;;;;;9.10;3.28;;;16.60;99.90;;;;;;5094839;28;20036;-84
2023/07/13 05:12:09;;;;;;;9.70;3.17;;;16.60;99.90;;;;;;5099444;27;20424;-84
2023/07/13 05:14:35;;;;;;;8.40;3.70;;;16.70;99.90;;;;;;5081091;28;20196;-84
2023/07/13 05:17:01;;;;;;;9.80;3.33;;;16.70;99.90;;;;;;5082582;28;20426;-83
2023/07/13 05:19:27;;;;;;;9.55;3.45;;;16.70;99.90;;;;;;5097368;28;20400;-83
2023/07/13 05:21:52;;;;;;;8.38;2.88;;;16.80;99.90;;;;;;5085103;28;20034;-83
2023/07/13 05:24:18;;;;;;;11.80;3.47;;;16.80;99.90;;;;;;5073632;28;20074;-84
2023/07/13 05:26:44;;;;;;;9.98;3.22;;;16.90;99.90;;;;;;5090827;28;20039;-83
2023/07/13 05:29:13;;;;;;;13.82;3.22;;;16.90;99.90;;;;;;5096929;28;20055;-84
2023/07/13 05:31:39;;;;;;;8.35;3.15;;;17.00;99.90;;;;;;5096002;28;20526;-83
2023/07/13 05:34:05;;;;;;;9.38;3.80;;;17.00;99.90;;;;;;5078655;28;20035;-84
2023/07/13 05:36:31;;;;;;;9.85;3.35;;;17.00;99.90;;;;;;5071483;28;20051;-83
2023/07/13 05:38:56;;;;;;;13.45;3.22;;;17.10;99.90;;;;;;5075309;28;20040;-83
2023/07/13 05:41:22;;;;;;;9.02;3.22;;;17.20;99.90;;;;;;5091986;28;20042;-84
2023/07/13 05:43:48;;;;;;;12.25;3.08;;;17.20;99.90;;;;;;5077616;28;20063;-84
2023/07/13 05:46:14;;;;;;;11.52;3.15;;;17.20;99.90;;;;;;5078536;28;20043;-83
2023/07/13 05:48:40;;;;;;;7.55;3.00;;;17.30;99.90;;;;;;5084661;27;20036;-83
2023/07/13 05:51:06;;;;;;;6.22;2.88;;;17.30;99.90;;;;;;5088708;27;20380;-83
2023/07/13 05:53:32;;;;;;;11.00;3.13;;;17.40;99.90;;;;;;5092817;27;20117;-83
2023/07/13 05:55:57;;;;;;;9.75;3.13;;;17.50;99.90;;;;;;5092027;27;20508;-83
2023/07/13 05:58:24;;;;;;;10.23;3.28;;;17.50;99.90;;;;;;5110616;27;20118;-84
2023/07/13 06:01:03;;;;;;;10.38;3.53;;;17.70;99.90;;;;;;5094868;27;20023;-83
2023/07/13 06:03:30;;;;;;;8.60;3.35;;;17.70;99.90;;;;;;5089047;27;20036;-83
2023/07/13 06:05:55;;;;;;;7.50;2.70;;;17.80;99.90;;;;;;5107987;27;20039;-84
2023/07/13 06:08:21;;;;;;;7.82;3.05;;;17.80;99.90;;;;;;5092204;27;20034;-84
2023/07/13 06:10:47;;;;;;;8.15;3.25;;;17.90;99.90;;;;;;5110323;27;20852;-84
2023/07/13 06:13:12;;;;;;;7.63;3.70;;;18.10;99.90;;;;;;5104977;27;20032;-84
2023/07/13 06:15:38;;;;;;;9.98;2.70;;;18.10;99.90;;;;;;5081640;27;20922;-84
2023/07/13 06:18:04;;;;;;;10.00;2.80;;;18.10;99.90;;;;;;5090742;27;20497;-84
2023/07/13 06:20:29;;;;;;;6.82;2.40;;;18.10;99.90;;;;;;5078721;28;20108;-83
2023/07/13 06:22:55;;;;;;;8.35;2.70;;;18.10;99.90;;;;;;5102600;27;20049;-83
2023/07/13 06:25:21;;;;;;;7.32;2.45;;;18.20;99.90;;;;;;5102477;27;20481;-84
2023/07/13 06:27:47;;;;;;;9.02;2.10;;;18.40;99.90;;;;;;5111214;27;20039;-84
2023/07/13 06:30:13;;;;;;;7.45;2.40;;;18.50;99.90;;;;;;5096716;27;20447;-83
2023/07/13 06:32:39;;;;;;;6.82;2.20;;;18.50;99.90;;;;;;5077294;27;20444;-84
2023/07/13 06:35:05;;;;;;;9.45;2.53;;;18.60;99.90;;;;;;5089167;27;20042;-84
2023/07/13 06:37:31;;;;;;;6.68;2.17;;;18.60;99.90;;;;;;5105090;27;20046;-83
2023/07/13 06:39:56;;;;;;;7.00;2.28;;;18.80;99.90;;;;;;5088646;27;20036;-84
2023/07/13 06:42:22;;;;;;;6.75;2.20;;;19.00;99.90;;;;;;5111795;27;20047;-84
2023/07/13 06:44:48;;;;;;;6.82;2.40;;;19.10;99.90;;;;;;5099906;27;20370;-84
2023/07/13 06:47:13;;;;;;;5.53;2.30;;;19.30;99.90;;;;;;5091798;27;20117;-84
2023/07/13 06:49:39;;;;;;;7.22;2.25;;;19.30;99.90;;;;;;5103496;27;20469;-84
2023/07/13 06:52:05;;;;;;;8.77;2.60;;;19.30;99.90;;;;;;5096479;27;20031;-85
2023/07/13 06:54:35;;;;;;;6.88;2.47;;;19.20;99.90;;;;;;5112851;27;20496;-84
2023/07/13 06:57:01;;;;;;;7.25;2.30;;;19.20;99.90;;;;;;5099703;27;20787;-84
2023/07/13 06:59:26;;;;;;;8.07;2.75;;;19.40;99.90;;;;;;5082685;27;20118;-84
2023/07/13 07:01:55;;;;;;;5.97;2.15;;;19.70;99.90;;;;;;5077287;27;20028;-83
2023/07/13 07:04:21;;;;;;;9.10;2.40;;;20.10;99.90;;;;;;5109572;27;20039;-84
2023/07/13 07:06:47;;;;;;;6.93;2.60;;;20.20;99.90;;;;;;5106729;27;20421;-84
2023/07/13 07:09:13;;;;;;;6.97;3.00;;;20.30;99.90;;;;;;5095038;27;20039;-84
2023/07/13 07:11:39;;;;;;;7.40;2.90;;;20.40;99.90;;;;;;5102203;27;20031;-84
2023/07/13 07:14:05;;;;;;;4.60;2.25;;;20.10;99.90;;;;;;5082695;27;20059;-84
2023/07/13 07:16:30;;;;;;;6.22;2.15;;;19.90;99.90;;;;;;5121691;27;20039;-84
2023/07/13 07:18:56;;;;;;;4.88;1.73;;;19.50;99.90;;;;;;5090772;27;20058;-84
2023/07/13 07:21:25;;;;;;;4.95;1.75;;;19.30;99.90;;;;;;5087887;27;20111;-83
2023/07/13 07:23:54;;;;;;;4.90;2.13;;;19.30;99.90;;;;;;5082237;27;20302;-84
2023/07/13 07:26:20;;;;;;;7.28;2.10;;;19.30;99.90;;;;;;5105368;27;20053;-83
2023/07/13 07:28:46;;;;;;;3.08;1.80;;;19.30;99.90;;;;;;5121849;27;20043;-83
2023/07/13 07:31:11;;;;;;;6.88;1.90;;;19.60;99.90;;;;;;5080438;27;20035;-83
2023/07/13 07:33:37;;;;;;;3.47;1.70;;;20.00;99.90;;;;;;5088308;27;20119;-84
2023/07/13 07:36:03;;;;;;;4.18;1.80;;;20.00;99.90;;;;;;5106455;27;20082;-83
2023/07/13 07:38:29;;;;;;;4.88;2.20;;;20.00;99.90;;;;;;5103957;27;20027;-84
2023/07/13 07:40:55;;;;;;;5.20;2.25;;;19.90;99.90;;;;;;5094700;27;20035;-83
2023/07/13 07:43:20;;;;;;;3.78;1.98;;;20.10;99.90;;;;;;5081276;27;20202;-83
2023/07/13 07:45:46;;;;;;;9.15;2.10;;;20.50;99.90;;;;;;5075387;27;20474;-84
2023/07/13 07:48:12;;;;;;;5.68;2.20;;;20.30;99.90;;;;;;5091102;27;20043;-84
2023/07/13 07:50:38;;;;;;;5.00;1.92;;;20.40;99.90;;;;;;5089204;27;20081;-84
2023/07/13 07:53:07;;;;;;;4.70;1.92;;;20.30;99.90;;;;;;5105742;27;20062;-83
2023/07/13 07:55:37;;;;;;;3.53;2.05;;;20.40;99.90;;;;;;5094709;27;20522;-84
2023/07/13 07:58:03;;;;;;;2.45;1.63;;;20.50;99.90;;;;;;5100898;27;20039;-84
2023/07/13 08:00:31;;;;;;;5.30;1.70;;;20.40;99.90;;;;;;5074638;27;20458;-83
2023/07/13 08:02:57;;;;;;;5.63;1.80;;;20.80;99.90;;;;;;5081037;27;20032;-84
2023/07/13 08:05:23;;;;;;;3.97;1.27;;;20.80;99.90;;;;;;5088626;27;20567;-84
2023/07/13 08:07:49;;;;;;;6.88;1.90;;;20.90;99.90;;;;;;5091451;27;20051;-83
2023/07/13 08:10:18;;;;;;;5.85;1.92;;;20.80;99.90;;;;;;5107418;27;20039;-84
2023/07/13 08:12:43;;;;;;;6.38;1.73;;;20.70;99.90;;;;;;5100546;27;20066;-83
2023/07/13 08:15:12;;;;;;;6.28;1.88;;;20.40;99.90;;;;;;5082671;27;20642;-84
2023/07/13 08:17:38;;;;;;;7.18;2.25;;;20.40;99.90;;;;;;5097924;27;20127;-83
2023/07/13 08:20:04;;;;;;;5.60;1.60;;;20.70;99.90;;;;;;5096921;27;20479;-85
2023/07/13 08:22:33;;;;;;;2.65;1.20;;;20.80;99.90;;;;;;5117226;27;20443;-84
2023/07/13 08:24:59;;;;;;;3.60;1.50;;;20.90;99.90;;;;;;5108787;27;20373;-83
2023/07/13 08:27:27;;;;;;;3.65;1.48;;;20.70;99.90;;;;;;5107141;27;20338;-83
2023/07/13 08:29:53;;;;;;;3.65;1.38;;;20.70;99.90;;;;;;5083016;27;20058;-83
2023/07/13 08:32:20;;;;;;;2.05;1.10;;;20.80;99.90;;;;;;5102541;27;20469;-83
2023/07/13 08:34:47;;;;;;;3.88;1.27;;;20.60;99.90;;;;;;5118907;27;20036;-84
2023/07/13 08:37:13;;;;;;;3.20;1.50;;;20.70;99.90;;;;;;5104742;27;20039;-82
2023/07/13 08:39:39;;;;;;;5.50;1.42;;;20.70;99.90;;;;;;5093996;27;20046;-83
2023/07/13 08:42:18;;;;;;;3.47;1.73;;;21.00;99.90;;;;;;5094922;27;20209;-83
2023/07/13 08:45:12;;;;;;;4.07;1.67;;;21.30;99.90;;;;;;5098850;27;20044;-83
2023/07/13 08:47:47;;;;;;;3.17;1.38;;;21.60;99.90;;;;;;5094820;27;20093;-84
2023/07/13 08:50:17;;;;;;;4.35;1.27;;;21.50;99.90;;;;;;5101245;27;20103;-83
2023/07/13 08:52:44;;;;;;;2.90;1.25;;;21.20;99.90;;;;;;5103740;27;20409;-83
2023/07/13 08:55:20;;;;;;;3.25;1.50;;;20.80;99.90;;;;;;5110203;27;20208;-83
2023/07/13 08:57:50;;;;;;;7.03;1.67;;;20.40;99.90;;;;;;5129149;27;20030;-83
2023/07/13 09:00:16;;;;;;;4.20;1.80;;;20.30;99.90;;;;;;5079757;27;20027;-83
2023/07/13 09:02:57;;;;;;;3.08;1.42;;;20.70;99.90;;;;;;5086590;27;20039;-83
2023/07/13 09:05:38;;;;;;;4.00;1.80;;;21.20;99.90;;;;;;5096242;27;20581;-83
2023/07/13 09:08:27;;;;;;;5.22;2.00;;;21.30;99.90;;;;;;5090003;27;20059;-83
2023/07/13 09:11:13;;;;;;;4.55;2.28;;;21.00;99.90;;;;;;5098438;27;20119;-84
2023/07/13 09:14:15;;;;;;;2.20;1.40;;;20.80;99.90;;;;;;5099381;27;20067;-83
2023/07/13 09:16:41;;;;;;;3.20;1.70;;;20.70;99.90;;;;;;5093265;27;20442;-83
2023/07/13 09:19:13;;;;;;;3.45;1.65;;;20.70;99.90;;;;;;5106807;27;20350;-83
2023/07/13 09:21:42;;;;;;;3.35;1.85;;;20.60;99.90;;;;;;5112087;27;20150;-84
2023/07/13 09:24:47;;;;;;;5.20;2.13;;;21.20;99.90;;;;;;5113376;27;20114;-84
2023/07/13 09:27:22;;;;;;;3.13;1.90;;;21.10;99.90;;;;;;5084299;27;20096;-83
2023/07/13 09:30:16;;;;;;;4.75;2.30;;;21.50;99.90;;;;;;5100553;27;20426;-83
2023/07/13 09:32:53;;;;;;;4.82;2.78;;;21.50;99.90;;;;;;5079120;27;20043;-83
2023/07/13 09:35:27;;;;;;;5.47;2.33;;;21.60;99.90;;;;;;5107083;27;20587;-84
2023/07/13 09:37:58;;;;;;;4.22;2.15;;;21.40;99.90;;;;;;5101735;27;20032;-83
2023/07/13 09:40:35;;;;;;;3.88;2.58;;;21.70;99.90;;;;;;5087183;27;20035;-83
2023/07/13 09:43:03;;;;;;;5.85;2.38;;;21.60;99.90;;;;;;5084216;27;20474;-83
2023/07/13 09:45:30;;;;;;;4.40;2.88;;;21.50;99.90;;;;;;5084679;27;20043;-84
2023/07/13 09:48:11;;;;;;;4.93;2.78;;;21.10;99.90;;;;;;5135394;27;20479;-84
2023/07/13 09:50:37;;;;;;;9.73;3.17;;;20.60;99.90;;;;;;5093312;27;20483;-83
2023/07/13 09:53:03;;;;;;;5.68;2.20;;;20.00;99.90;;;;;;5119512;27;20039;-83
2023/07/13 09:55:36;;;;;;;5.85;2.78;;;19.80;99.90;;;;;;5112571;27;20121;-82
2023/07/13 09:58:15;;;;;;;3.30;2.30;;;19.40;99.90;;;;;;5114316;27;20522;-84
2023/07/13 10:00:43;;;;;;;6.00;2.88;;;19.20;99.90;;;;;;5101275;27;20035;-83
2023/07/13 10:03:26;;;;;;;6.93;2.90;;;19.10;99.90;;;;;;5099892;27;20558;-84
2023/07/13 10:05:53;;;;;;;5.00;2.80;;;19.00;99.90;;;;;;5096185;27;20472;-84
2023/07/13 10:08:30;;;;;;;5.65;3.38;;;18.90;99.90;;;;;;5126485;27;20035;-83
2023/07/13 10:11:02;;;;;;;6.10;3.05;;;19.00;99.90;;;;;;5085810;27;20418;-83
2023/07/13 10:13:36;;;;;;;5.93;3.35;;;18.90;99.90;;;;;;5110880;27;20085;-83
2023/07/13 10:16:06;;;;;;;5.30;3.07;;;19.00;99.90;;;;;;5095301;27;20565;-83
2023/07/13 10:18:50;;;;;;;5.40;3.35;;;19.00;99.90;;;;;;5101436;27;20424;-83
2023/07/13 10:21:23;;;;;;;5.72;3.67;;;19.10;99.90;;;;;;5085698;27;20129;-83
2023/07/13 10:23:53;;;;;;;4.63;3.42;;;19.20;99.90;;;;;;5079998;27;20039;-83
2023/07/13 10:26:29;;;;;;;4.80;2.97;;;19.50;99.90;;;;;;5124372;27;20112;-82
2023/07/13 10:29:03;;;;;;;7.68;3.90;;;20.00;99.90;;;;;;5088266;27;20054;-83
2023/07/13 10:31:31;;;;;;;5.97;3.65;;;20.40;99.90;;;;;;5100936;27;20043;-83
2023/07/13 10:33:57;;;;;;;4.43;3.15;;;20.40;99.90;;;;;;5116956;27;20042;-83
2023/07/13 10:36:35;;;;;;;5.50;3.50;;;20.60;99.90;;;;;;5080262;27;20574;-83
2023/07/13 10:39:04;;;;;;;4.40;3.42;;;21.20;99.90;;;;;;5110078;27;20034;-83
2023/07/13 10:41:36;;;;;;;5.38;2.85;;;21.50;99.90;;;;;;5103683;27;20629;-83
2023/07/13 10:44:03;;;;;;;3.90;2.50;;;21.60;99.90;;;;;;5096999;27;20065;-83
2023/07/13 10:46:30;;;;;;;5.55;3.03;;;21.50;99.90;;;;;;5103855;27;20466;-83
2023/07/13 10:49:04;;;;;;;5.78;2.38;;;21.90;99.90;;;;;;5105785;27;20424;-83
2023/07/13 10:51:30;;;;;;;5.43;2.53;;;22.40;99.90;;;;;;5081136;27;20065;-84
2023/07/13 10:54:16;;;;;;;4.22;2.65;;;22.70;99.90;;;;;;5090239;27;20537;-84
2023/07/13 10:56:43;;;;;;;3.35;2.25;;;22.50;99.90;;;;;;5105007;27;20104;-83
2023/07/13 10:59:08;;;;;;;3.67;2.10;;;22.80;99.90;;;;;;5082666;27;20032;-84
2023/07/13 11:02:09;;;;;;;4.85;2.40;;;22.50;99.90;;;;;;5114974;27;20065;-83
2023/07/13 11:04:49;;;;;;;3.60;2.20;;;21.50;99.90;;;;;;5078047;27;20406;-83
2023/07/13 11:07:23;;;;;;;3.70;2.33;;;21.20;99.90;;;;;;5110649;27;20479;-83
2023/07/13 11:09:57;;;;;;;5.47;2.40;;;20.70;99.90;;;;;;5111520;27;20035;-83
2023/07/13 11:12:23;;;;;;;4.25;2.10;;;20.70;99.90;;;;;;5098289;27;20481;-83
2023/07/13 11:14:54;;;;;;;4.57;2.13;;;21.00;99.90;;;;;;5103532;27;20070;-83
2023/07/13 11:17:35;;;;;;;4.88;2.00;;;21.60;99.90;;;;;;5106254;27;20116;-83
2023/07/13 11:20:21;;;;;;;5.30;2.03;;;21.90;99.90;;;;;;5080586;27;20402;-84
2023/07/13 11:22:51;;;;;;;5.38;1.70;;;22.10;99.90;;;;;;5106190;27;20493;-83
2023/07/13 11:25:25;;;;;;;4.00;1.63;;;22.50;99.90;;;;;;5096268;27;20505;-83
2023/07/13 11:28:05;;;;;;;1.88;1.40;;;21.70;99.90;;;;;;5103399;27;20036;-82
2023/07/13 11:30:34;;;;;;;2.47;1.23;;;21.80;99.90;;;;;;5086495;27;20071;-83
2023/07/13 11:33:20;;;;;;;3.85;1.30;;;21.60;99.90;;;;;;5126769;27;20054;-82
2023/07/13 11:36:02;;;;;;;2.70;1.30;;;21.40;99.90;;;;;;5106071;27;20089;-83
2023/07/13 11:38:40;;;;;;;2.70;1.30;;;22.00;99.90;;;;;;5103426;27;20053;-83
2023/07/13 11:41:15;;;;;;;3.00;1.55;;;21.70;99.90;;;;;;5088061;27;20039;-83
2023/07/13 11:43:42;;;;;;;1.90;1.48;;;21.20;99.90;;;;;;5089181;27;20066;-83
2023/07/13 11:46:34;;;;;;;3.88;1.45;;;21.40;99.90;;;;;;5097268;27;20038;-82
2023/07/13 11:48:59;;;;;;;2.42;1.23;;;21.40;99.90;;;;;;5075511;27;20048;-83
2023/07/13 11:51:28;;;;;;;2.53;1.13;;;21.90;99.90;;;;;;5123800;27;20050;-82
2023/07/13 11:53:56;;;;;;;3.80;1.30;;;21.60;40.00;;;;;;5103781;27;20054;-82
2023/07/13 11:56:23;;;;;;;2.53;1.40;;;21.20;1.00;;;;;;5119919;27;20046;-83
2023/07/13 11:58:55;;;;;;;4.50;1.70;;;20.90;99.90;;;;;;5105931;27;20438;-83
2023/07/13 12:01:24;;;;;;;4.30;1.88;;;20.70;99.90;;;;;;5105242;27;20118;-82
2023/07/13 12:03:51;;;;;;;3.42;1.30;;;21.30;99.90;;;;;;5087055;27;20039;-82
2023/07/13 12:06:39;;;;;;;2.72;1.30;;;22.20;99.90;;;;;;5106293;27;20043;-83
2023/07/13 12:09:15;;;;;;;2.92;1.50;;;22.80;99.90;;;;;;5109319;27;20083;-82
2023/07/13 12:11:43;;;;;;;2.95;1.20;;;23.10;99.90;;;;;;5115098;27;20046;-84
2023/07/13 12:14:17;;;;;;;2.13;1.27;;;22.80;1.00;;;;;;5078964;27;20046;-83
2023/07/13 12:16:45;;;;;;;4.50;1.48;;;22.90;99.90;;;;;;5098906;27;20409;-83
2023/07/13 12:19:28;;;;;;;3.50;1.45;;;22.70;99.90;;;;;;5132314;27;20099;-83
2023/07/13 12:21:59;;;;;;;3.28;1.30;;;22.70;99.90;;;;;;5081203;27;20196;-83
2023/07/13 12:24:26;;;;;;;2.97;1.13;;;22.60;99.90;;;;;;5100660;27;20034;-83
2023/07/13 12:26:54;;;;;;;5.47;2.13;;;23.30;99.90;;;;;;5108643;27;20053;-82
2023/07/13 12:29:20;;;;;;;4.80;1.48;;;22.70;99.90;;;;;;5125879;27;20110;-83
2023/07/13 12:31:49;;;;;;;4.90;1.73;;;21.70;99.90;;;;;;5097453;27;20380;-83
2023/07/13 12:34:24;;;;;;;2.95;1.40;;;21.80;99.90;;;;;;5091960;27;20365;-83
2023/07/13 12:37:01;;;;;;;4.95;1.60;;;21.40;99.90;;;;;;5085540;27;20514;-83
2023/07/13 12:39:38;;;;;;;2.55;1.30;;;21.50;6.70;;;;;;5094420;27;20059;-82
2023/07/13 12:42:32;;;;;;;3.13;1.33;;;22.50;99.90;;;;;;5104071;27;20551;-83
2023/07/13 12:45:02;;;;;;;3.40;1.60;;;22.30;99.90;;;;;;5094351;27;20154;-83
2023/07/13 12:47:28;;;;;;;2.45;1.60;;;22.40;99.90;;;;;;5097921;28;20111;-83
2023/07/13 12:49:56;;;;;;;2.95;1.52;;;22.70;99.90;;;;;;5102119;27;20061;-83
2023/07/13 12:52:30;;;;;;;2.70;1.20;;;22.20;99.90;;;;;;5104347;27;20039;-83